sensor_id;sensor_type;location;lat;lon;timestamp;temperature;humidity
15286;DHT22;7744;52.172;10.668;2022-12-15T00:01:47;-9.70;99.90
15286;DHT22;7744;52.172;10.668;2022-12-15T00:04:31;-9.70;99.90
15286;DHT22;7744;52.172;10.668;2022-12-15T00:07:15;-9.70;99.90
15286;DHT22;7744;52.172;10.668;2022-12-15T00:09:59;-9.70;99.90
15286;DHT22;7744;52.172;10.668;2022-12-15T00:12:43;-9.80;99.90
15286;DHT22;7744;52.172;10.668;2022-12-15T00:15:28;-9.70;99.90
15286;DHT22;7744;52.172;10.668;2022-12-15T00:18:12;-9.70;99.90
15286;DHT22;7744;52.172;10.668;2022-12-15T00:20:57;-9.70;99.90
15286;DHT22;7744;52.172;10.668;2022-12-15T00:23:41;-9.70;99.90
15286;DHT22;7744;52.172;10.668;2022-12-15T00:26:25;-9.50;99.90
15286;DHT22;7744;52.172;10.668;2022-12-15T00:29:09;-9.40;99.90
15286;DHT22;7744;52.172;10.668;2022-12-15T00:31:53;-9.40;99.90
15286;DHT22;7744;52.172;10.668;2022-12-15T00:34:37;-9.40;99.90
15286;DHT22;7744;52.172;10.668;2022-12-15T00:37:21;-9.40;99.90
15286;DHT22;7744;52.172;10.668;2022-12-15T00:40:05;-9.50;99.90
15286;DHT22;7744;52.172;10.668;2022-12-15T00:42:31;-9.40;99.90
15286;DHT22;7744;52.172;10.668;2022-12-15T00:44:57;-9.30;99.90
15286;DHT22;7744;52.172;10.668;2022-12-15T00:47:23;-9.40;99.90
15286;DHT22;7744;52.172;10.668;2022-12-15T00:49:49;-9.50;99.90
15286;DHT22;7744;52.172;10.668;2022-12-15T00:52:34;-9.50;99.90
15286;DHT22;7744;52.172;10.668;2022-12-15T00:55:18;-9.60;99.90
15286;DHT22;7744;52.172;10.668;2022-12-15T00:58:02;-9.60;99.90
15286;DHT22;7744;52.172;10.668;2022-12-15T01:00:46;-9.60;99.90
15286;DHT22;7744;52.172;10.668;2022-12-15T01:03:30;-9.50;99.90
15286;DHT22;7744;52.172;10.668;2022-12-15T01:06:17;-9.70;99.90
15286;DHT22;7744;52.172;10.668;2022-12-15T01:09:02;-9.70;99.90
15286;DHT22;7744;52.172;10.668;2022-12-15T01:11:47;-9.70;99.90
15286;DHT22;7744;52.172;10.668;2022-12-15T01:14:31;-9.80;99.90
15286;DHT22;7744;52.172;10.668;2022-12-15T01:17:16;-9.60;99.90
15286;DHT22;7744;52.172;10.668;2022-12-15T01:20:00;-9.60;99.90
15286;DHT22;7744;52.172;10.668;2022-12-15T01:22:54;-9.70;99.90
15286;DHT22;7744;52.172;10.668;2022-12-15T01:25:22;-9.80;99.90
15286;DHT22;7744;52.172;10.668;2022-12-15T01:27:49;-9.80;99.90
15286;DHT22;7744;52.172;10.668;2022-12-15T01:30:20;-9.80;99.90
15286;DHT22;7744;52.172;10.668;2022-12-15T01:32:46;-9.80;99.90
15286;DHT22;7744;52.172;10.668;2022-12-15T01:35:12;-9.90;99.90
15286;DHT22;7744;52.172;10.668;2022-12-15T01:37:38;-9.80;99.90
15286;DHT22;7744;52.172;10.668;2022-12-15T01:40:06;-9.80;99.90
15286;DHT22;7744;52.172;10.668;2022-12-15T01:42:51;-9.80;99.90
15286;DHT22;7744;52.172;10.668;2022-12-15T01:48:19;-9.80;99.90
15286;DHT22;7744;52.172;10.668;2022-12-15T01:50:46;-9.80;99.90
15286;DHT22;7744;52.172;10.668;2022-12-15T01:53:14;-9.60;99.90
15286;DHT22;7744;52.172;10.668;2022-12-15T01:55:41;-9.70;99.90
15286;DHT22;7744;52.172;10.668;2022-12-15T01:58:09;-9.50;99.90
15286;DHT22;7744;52.172;10.668;2022-12-15T02:00:35;-9.50;99.90
15286;DHT22;7744;52.172;10.668;2022-12-15T02:03:03;-9.50;99.90
15286;DHT22;7744;52.172;10.668;2022-12-15T02:05:30;-9.40;99.90
15286;DHT22;7744;52.172;10.668;2022-12-15T02:07:57;-9.50;99.90
15286;DHT22;7744;52.172;10.668;2022-12-15T02:10:28;-9.50;99.90
15286;DHT22;7744;52.172;10.668;2022-12-15T02:15:40;-9.40;99.90
15286;DHT22;7744;52.172;10.668;2022-12-15T02:18:24;-9.30;99.90
15286;DHT22;7744;52.172;10.668;2022-12-15T02:26:47;-9.40;99.90
15286;DHT22;7744;52.172;10.668;2022-12-15T02:29:49;-9.40;99.90
15286;DHT22;7744;52.172;10.668;2022-12-15T02:32:26;-9.40;99.90
15286;DHT22;7744;52.172;10.668;2022-12-15T02:35:04;-9.40;99.90
15286;DHT22;7744;52.172;10.668;2022-12-15T02:37:36;-9.40;99.90
15286;DHT22;7744;52.172;10.668;2022-12-15T02:40:05;-9.30;99.90
15286;DHT22;7744;52.172;10.668;2022-12-15T02:42:32;-9.20;99.90
15286;DHT22;7744;52.172;10.668;2022-12-15T02:45:08;-9.20;99.90
15286;DHT22;7744;52.172;10.668;2022-12-15T03:01:45;-9.10;99.90
15286;DHT22;7744;52.172;10.668;2022-12-15T03:03:46;-9.10;99.90
15286;DHT22;7744;52.172;10.668;2022-12-15T03:06:13;-9.30;99.90
15286;DHT22;7744;52.172;10.668;2022-12-15T03:08:39;-9.40;99.90
15286;DHT22;7744;52.172;10.668;2022-12-15T03:11:05;-9.60;99.90
15286;DHT22;7744;52.172;10.668;2022-12-15T03:13:31;-9.50;99.90
15286;DHT22;7744;52.172;10.668;2022-12-15T03:15:56;-9.40;99.90
15286;DHT22;7744;52.172;10.668;2022-12-15T03:18:23;-9.30;99.90
15286;DHT22;7744;52.172;10.668;2022-12-15T03:20:49;-9.00;99.90
15286;DHT22;7744;52.172;10.668;2022-12-15T03:23:15;-9.20;99.90
15286;DHT22;7744;52.172;10.668;2022-12-15T03:25:43;-9.10;99.90
15286;DHT22;7744;52.172;10.668;2022-12-15T03:28:09;-9.10;99.90
15286;DHT22;7744;52.172;10.668;2022-12-15T03:30:34;-9.10;99.90
15286;DHT22;7744;52.172;10.668;2022-12-15T03:33:00;-9.00;99.90
15286;DHT22;7744;52.172;10.668;2022-12-15T03:35:26;-9.00;99.90
15286;DHT22;7744;52.172;10.668;2022-12-15T03:37:51;-9.00;99.90
15286;DHT22;7744;52.172;10.668;2022-12-15T03:40:17;-8.90;99.90
15286;DHT22;7744;52.172;10.668;2022-12-15T03:42:43;-9.00;99.90
15286;DHT22;7744;52.172;10.668;2022-12-15T03:45:16;-9.10;99.90
15286;DHT22;7744;52.172;10.668;2022-12-15T03:47:43;-9.20;99.90
15286;DHT22;7744;52.172;10.668;2022-12-15T03:50:10;-9.20;99.90
15286;DHT22;7744;52.172;10.668;2022-12-15T03:52:37;-9.20;99.90
15286;DHT22;7744;52.172;10.668;2022-12-15T03:55:03;-9.20;99.90
15286;DHT22;7744;52.172;10.668;2022-12-15T03:57:29;-9.30;99.90
15286;DHT22;7744;52.172;10.668;2022-12-15T03:59:55;-9.40;99.90
15286;DHT22;7744;52.172;10.668;2022-12-15T04:02:20;-9.40;99.90
15286;DHT22;7744;52.172;10.668;2022-12-15T04:04:46;-9.40;99.90
15286;DHT22;7744;52.172;10.668;2022-12-15T04:07:13;-9.40;99.90
15286;DHT22;7744;52.172;10.668;2022-12-15T04:09:38;-9.40;99.90
15286;DHT22;7744;52.172;10.668;2022-12-15T04:12:04;-9.40;99.90
15286;DHT22;7744;52.172;10.668;2022-12-15T04:14:30;-9.30;99.90
15286;DHT22;7744;52.172;10.668;2022-12-15T04:16:55;-9.40;99.90
15286;DHT22;7744;52.172;10.668;2022-12-15T04:19:21;-9.30;99.90
15286;DHT22;7744;52.172;10.668;2022-12-15T04:22:05;-9.30;99.90
15286;DHT22;7744;52.172;10.668;2022-12-15T04:24:31;-9.30;99.90
15286;DHT22;7744;52.172;10.668;2022-12-15T04:27:15;-9.30;99.90
15286;DHT22;7744;52.172;10.668;2022-12-15T04:29:59;-9.40;99.90
15286;DHT22;7744;52.172;10.668;2022-12-15T04:32:43;-9.40;99.90
15286;DHT22;7744;52.172;10.668;2022-12-15T04:35:28;-9.40;99.90
15286;DHT22;7744;52.172;10.668;2022-12-15T04:38:13;-9.40;99.90
15286;DHT22;7744;52.172;10.668;2022-12-15T04:40:57;-9.20;99.90
15286;DHT22;7744;52.172;10.668;2022-12-15T04:43:41;-9.20;99.90
15286;DHT22;7744;52.172;10.668;2022-12-15T04:46:25;-9.20;99.90
15286;DHT22;7744;52.172;10.668;2022-12-15T04:49:09;-9.10;99.90
15286;DHT22;7744;52.172;10.668;2022-12-15T04:51:53;-9.00;99.90
15286;DHT22;7744;52.172;10.668;2022-12-15T04:54:38;-8.90;99.90
15286;DHT22;7744;52.172;10.668;2022-12-15T04:57:21;-8.90;99.90
15286;DHT22;7744;52.172;10.668;2022-12-15T05:00:06;-8.90;99.90
15286;DHT22;7744;52.172;10.668;2022-12-15T05:02:50;-8.70;99.90
15286;DHT22;7744;52.172;10.668;2022-12-15T05:05:34;-8.80;99.90
15286;DHT22;7744;52.172;10.668;2022-12-15T05:08:18;-8.80;99.90
15286;DHT22;7744;52.172;10.668;2022-12-15T05:11:02;-8.70;99.90
15286;DHT22;7744;52.172;10.668;2022-12-15T05:13:46;-7.70;99.90
15286;DHT22;7744;52.172;10.668;2022-12-15T05:16:30;-8.70;99.90
15286;DHT22;7744;52.172;10.668;2022-12-15T05:19:14;-8.70;99.90
15286;DHT22;7744;52.172;10.668;2022-12-15T05:21:58;-8.60;99.90
15286;DHT22;7744;52.172;10.668;2022-12-15T05:24:42;-8.60;99.90
15286;DHT22;7744;52.172;10.668;2022-12-15T05:27:26;-8.60;99.90
15286;DHT22;7744;52.172;10.668;2022-12-15T05:30:10;-8.60;99.90
15286;DHT22;7744;52.172;10.668;2022-12-15T05:32:54;-8.70;99.90
15286;DHT22;7744;52.172;10.668;2022-12-15T05:35:20;-8.80;99.90
15286;DHT22;7744;52.172;10.668;2022-12-15T05:37:45;-8.90;99.90
15286;DHT22;7744;52.172;10.668;2022-12-15T05:40:11;-9.00;99.90
15286;DHT22;7744;52.172;10.668;2022-12-15T05:42:37;-9.00;99.90
15286;DHT22;7744;52.172;10.668;2022-12-15T05:45:02;-9.00;99.90
15286;DHT22;7744;52.172;10.668;2022-12-15T05:47:29;-8.90;99.90
15286;DHT22;7744;52.172;10.668;2022-12-15T05:49:55;-8.80;99.90
15286;DHT22;7744;52.172;10.668;2022-12-15T05:52:20;-8.70;99.90
15286;DHT22;7744;52.172;10.668;2022-12-15T05:54:46;-8.60;99.90
15286;DHT22;7744;52.172;10.668;2022-12-15T05:57:12;-8.60;99.90
15286;DHT22;7744;52.172;10.668;2022-12-15T05:59:37;-8.60;99.90
15286;DHT22;7744;52.172;10.668;2022-12-15T06:02:03;-8.60;99.90
15286;DHT22;7744;52.172;10.668;2022-12-15T06:04:28;-8.60;99.90
15286;DHT22;7744;52.172;10.668;2022-12-15T06:06:54;-8.60;99.90
15286;DHT22;7744;52.172;10.668;2022-12-15T06:09:21;-8.70;99.90
15286;DHT22;7744;52.172;10.668;2022-12-15T06:11:46;-8.60;99.90
15286;DHT22;7744;52.172;10.668;2022-12-15T06:14:12;-8.60;99.90
15286;DHT22;7744;52.172;10.668;2022-12-15T06:16:37;-8.60;99.90
15286;DHT22;7744;52.172;10.668;2022-12-15T06:19:03;-8.70;99.90
15286;DHT22;7744;52.172;10.668;2022-12-15T06:21:31;-8.70;99.90
15286;DHT22;7744;52.172;10.668;2022-12-15T06:24:00;-8.70;99.90
15286;DHT22;7744;52.172;10.668;2022-12-15T06:26:39;-8.70;99.90
15286;DHT22;7744;52.172;10.668;2022-12-15T06:29:07;-8.80;99.90
15286;DHT22;7744;52.172;10.668;2022-12-15T06:31:33;-8.70;99.90
15286;DHT22;7744;52.172;10.668;2022-12-15T06:33:58;-8.70;99.90
15286;DHT22;7744;52.172;10.668;2022-12-15T06:36:25;-8.70;99.90
15286;DHT22;7744;52.172;10.668;2022-12-15T06:38:51;-8.70;99.90
15286;DHT22;7744;52.172;10.668;2022-12-15T06:41:19;-8.70;99.90
15286;DHT22;7744;52.172;10.668;2022-12-15T06:43:50;-8.60;99.90
15286;DHT22;7744;52.172;10.668;2022-12-15T06:46:16;-8.60;99.90
15286;DHT22;7744;52.172;10.668;2022-12-15T06:48:42;-8.60;99.90
15286;DHT22;7744;52.172;10.668;2022-12-15T06:51:11;-8.40;99.90
15286;DHT22;7744;52.172;10.668;2022-12-15T06:53:38;-8.30;99.90
15286;DHT22;7744;52.172;10.668;2022-12-15T06:56:07;-8.40;99.90
15286;DHT22;7744;52.172;10.668;2022-12-15T06:58:38;-8.40;99.90
15286;DHT22;7744;52.172;10.668;2022-12-15T07:01:07;-8.40;99.90
15286;DHT22;7744;52.172;10.668;2022-12-15T07:03:33;-8.30;99.90
15286;DHT22;7744;52.172;10.668;2022-12-15T07:06:06;-8.30;99.90
15286;DHT22;7744;52.172;10.668;2022-12-15T07:08:32;-8.20;99.90
15286;DHT22;7744;52.172;10.668;2022-12-15T07:10:58;-8.10;99.90
15286;DHT22;7744;52.172;10.668;2022-12-15T07:13:24;-8.10;99.90
15286;DHT22;7744;52.172;10.668;2022-12-15T07:15:50;-8.20;99.90
15286;DHT22;7744;52.172;10.668;2022-12-15T07:18:16;-8.30;99.90
15286;DHT22;7744;52.172;10.668;2022-12-15T07:20:42;-8.30;99.90
15286;DHT22;7744;52.172;10.668;2022-12-15T07:23:08;-8.40;99.90
15286;DHT22;7744;52.172;10.668;2022-12-15T07:25:38;-8.40;99.90
15286;DHT22;7744;52.172;10.668;2022-12-15T07:28:04;-8.40;99.90
15286;DHT22;7744;52.172;10.668;2022-12-15T07:30:31;-8.40;99.90
15286;DHT22;7744;52.172;10.668;2022-12-15T07:32:57;-8.30;99.90
15286;DHT22;7744;52.172;10.668;2022-12-15T07:35:23;-8.30;99.90
15286;DHT22;7744;52.172;10.668;2022-12-15T07:37:48;-8.30;99.90
15286;DHT22;7744;52.172;10.668;2022-12-15T07:40:15;-8.20;99.90
15286;DHT22;7744;52.172;10.668;2022-12-15T07:42:40;-8.10;99.90
15286;DHT22;7744;52.172;10.668;2022-12-15T07:45:06;-8.00;99.90
15286;DHT22;7744;52.172;10.668;2022-12-15T07:47:32;-8.00;99.90
15286;DHT22;7744;52.172;10.668;2022-12-15T07:49:58;-7.80;99.90
15286;DHT22;7744;52.172;10.668;2022-12-15T07:52:24;-7.80;99.90
15286;DHT22;7744;52.172;10.668;2022-12-15T07:54:49;-7.80;99.90
15286;DHT22;7744;52.172;10.668;2022-12-15T07:57:15;-7.60;99.90
15286;DHT22;7744;52.172;10.668;2022-12-15T07:59:41;-7.60;99.90
15286;DHT22;7744;52.172;10.668;2022-12-15T08:02:11;-7.50;99.90
15286;DHT22;7744;52.172;10.668;2022-12-15T08:04:37;-7.50;99.90
15286;DHT22;7744;52.172;10.668;2022-12-15T08:07:03;-7.40;99.90
15286;DHT22;7744;52.172;10.668;2022-12-15T08:09:28;-7.40;99.90
15286;DHT22;7744;52.172;10.668;2022-12-15T08:11:56;-7.30;99.90
15286;DHT22;7744;52.172;10.668;2022-12-15T08:14:22;-7.30;99.90
15286;DHT22;7744;52.172;10.668;2022-12-15T08:16:47;-7.00;99.90
15286;DHT22;7744;52.172;10.668;2022-12-15T08:19:14;-6.60;99.90
15286;DHT22;7744;52.172;10.668;2022-12-15T08:21:42;-6.80;99.90
15286;DHT22;7744;52.172;10.668;2022-12-15T08:24:09;-6.70;99.90
15286;DHT22;7744;52.172;10.668;2022-12-15T08:26:35;-6.70;99.90
15286;DHT22;7744;52.172;10.668;2022-12-15T08:29:04;-6.70;99.90
15286;DHT22;7744;52.172;10.668;2022-12-15T08:31:32;-6.70;99.90
15286;DHT22;7744;52.172;10.668;2022-12-15T08:34:00;-6.60;99.90
15286;DHT22;7744;52.172;10.668;2022-12-15T08:36:26;-6.60;99.90
15286;DHT22;7744;52.172;10.668;2022-12-15T08:38:55;-6.50;99.90
15286;DHT22;7744;52.172;10.668;2022-12-15T08:41:24;-6.40;99.90
15286;DHT22;7744;52.172;10.668;2022-12-15T08:43:51;-6.50;99.90
15286;DHT22;7744;52.172;10.668;2022-12-15T08:46:23;-6.60;99.90
15286;DHT22;7744;52.172;10.668;2022-12-15T08:48:49;-6.50;99.90
15286;DHT22;7744;52.172;10.668;2022-12-15T08:51:15;-6.50;99.90
15286;DHT22;7744;52.172;10.668;2022-12-15T08:53:41;-6.60;99.90
15286;DHT22;7744;52.172;10.668;2022-12-15T08:56:10;-6.50;99.90
15286;DHT22;7744;52.172;10.668;2022-12-15T08:58:36;-6.40;99.90
15286;DHT22;7744;52.172;10.668;2022-12-15T09:01:07;-6.50;99.90
15286;DHT22;7744;52.172;10.668;2022-12-15T09:03:34;-6.40;99.90
15286;DHT22;7744;52.172;10.668;2022-12-15T09:06:15;-6.30;99.90
15286;DHT22;7744;52.172;10.668;2022-12-15T09:08:42;-6.30;99.90
15286;DHT22;7744;52.172;10.668;2022-12-15T09:11:08;-6.30;99.90
15286;DHT22;7744;52.172;10.668;2022-12-15T09:13:33;-6.30;99.90
15286;DHT22;7744;52.172;10.668;2022-12-15T09:16:01;-5.00;99.90
15286;DHT22;7744;52.172;10.668;2022-12-15T09:18:27;-6.20;99.90
15286;DHT22;7744;52.172;10.668;2022-12-15T09:20:54;-6.20;99.90
15286;DHT22;7744;52.172;10.668;2022-12-15T09:23:20;-6.10;99.90
15286;DHT22;7744;52.172;10.668;2022-12-15T09:25:46;-6.10;99.90
15286;DHT22;7744;52.172;10.668;2022-12-15T09:28:15;-6.00;99.90
15286;DHT22;7744;52.172;10.668;2022-12-15T09:30:40;-5.90;99.90
15286;DHT22;7744;52.172;10.668;2022-12-15T09:33:06;-5.90;99.90
15286;DHT22;7744;52.172;10.668;2022-12-15T09:35:32;-5.70;99.90
15286;DHT22;7744;52.172;10.668;2022-12-15T09:37:57;-5.50;99.90
15286;DHT22;7744;52.172;10.668;2022-12-15T09:40:24;-5.60;99.90
15286;DHT22;7744;52.172;10.668;2022-12-15T09:42:53;-5.40;99.90
15286;DHT22;7744;52.172;10.668;2022-12-15T09:45:33;-5.30;99.90
15286;DHT22;7744;52.172;10.668;2022-12-15T09:48:04;-5.30;99.90
15286;DHT22;7744;52.172;10.668;2022-12-15T09:50:34;-5.30;99.90
15286;DHT22;7744;52.172;10.668;2022-12-15T09:53:01;-4.90;1.00
15286;DHT22;7744;52.172;10.668;2022-12-15T09:55:30;-4.90;1.00
15286;DHT22;7744;52.172;10.668;2022-12-15T10:01:34;-4.70;1.00
15286;DHT22;7744;52.172;10.668;2022-12-15T10:06:53;-4.50;1.00
15286;DHT22;7744;52.172;10.668;2022-12-15T10:09:25;-4.40;1.00
15286;DHT22;7744;52.172;10.668;2022-12-15T10:12:01;-4.30;1.00
15286;DHT22;7744;52.172;10.668;2022-12-15T10:20:04;-3.90;1.00
15286;DHT22;7744;52.172;10.668;2022-12-15T10:22:33;-3.80;1.00
15286;DHT22;7744;52.172;10.668;2022-12-15T10:30:33;-3.10;99.90
15286;DHT22;7744;52.172;10.668;2022-12-15T10:33:20;-3.30;99.90
15286;DHT22;7744;52.172;10.668;2022-12-15T10:35:47;-3.30;99.90
15286;DHT22;7744;52.172;10.668;2022-12-15T10:38:32;-3.20;99.90
15286;DHT22;7744;52.172;10.668;2022-12-15T10:41:01;-3.20;99.90
15286;DHT22;7744;52.172;10.668;2022-12-15T10:43:42;-3.20;99.90
15286;DHT22;7744;52.172;10.668;2022-12-15T10:46:12;-3.10;99.90
15286;DHT22;7744;52.172;10.668;2022-12-15T10:48:42;-3.10;99.90
15286;DHT22;7744;52.172;10.668;2022-12-15T10:51:18;-3.00;99.90
15286;DHT22;7744;52.172;10.668;2022-12-15T10:56:27;-2.80;99.90
15286;DHT22;7744;52.172;10.668;2022-12-15T10:58:55;-2.70;99.90
15286;DHT22;7744;52.172;10.668;2022-12-15T11:01:26;-2.60;99.90
15286;DHT22;7744;52.172;10.668;2022-12-15T11:03:52;-2.60;99.90
15286;DHT22;7744;52.172;10.668;2022-12-15T11:06:25;-2.50;99.90
15286;DHT22;7744;52.172;10.668;2022-12-15T11:08:55;-2.40;99.90
15286;DHT22;7744;52.172;10.668;2022-12-15T11:11:36;-2.40;99.90
15286;DHT22;7744;52.172;10.668;2022-12-15T11:14:41;-2.40;99.90
15286;DHT22;7744;52.172;10.668;2022-12-15T11:17:08;-2.40;99.90
15286;DHT22;7744;52.172;10.668;2022-12-15T11:19:43;-2.40;99.90
15286;DHT22;7744;52.172;10.668;2022-12-15T11:22:39;-2.30;99.90
15286;DHT22;7744;52.172;10.668;2022-12-15T11:25:19;-2.20;99.90
15286;DHT22;7744;52.172;10.668;2022-12-15T11:27:48;-2.00;99.90
15286;DHT22;7744;52.172;10.668;2022-12-15T11:30:17;-2.00;99.90
15286;DHT22;7744;52.172;10.668;2022-12-15T11:32:46;-2.00;99.90
15286;DHT22;7744;52.172;10.668;2022-12-15T11:35:15;-2.10;99.90
15286;DHT22;7744;52.172;10.668;2022-12-15T11:37:45;-1.80;99.90
15286;DHT22;7744;52.172;10.668;2022-12-15T11:40:42;-2.20;99.90
15286;DHT22;7744;52.172;10.668;2022-12-15T11:48:22;-2.10;99.90
15286;DHT22;7744;52.172;10.668;2022-12-15T11:50:52;-2.00;99.90
15286;DHT22;7744;52.172;10.668;2022-12-15T11:56:19;-2.00;99.90
15286;DHT22;7744;52.172;10.668;2022-12-15T12:01:57;-1.90;99.90
15286;DHT22;7744;52.172;10.668;2022-12-15T12:04:30;-1.90;99.90
15286;DHT22;7744;52.172;10.668;2022-12-15T12:07:27;-1.90;99.90
15286;DHT22;7744;52.172;10.668;2022-12-15T12:17:54;-1.80;99.90
15286;DHT22;7744;52.172;10.668;2022-12-15T12:22:59;-1.70;99.90
15286;DHT22;7744;52.172;10.668;2022-12-15T12:25:27;-1.60;99.90
15286;DHT22;7744;52.172;10.668;2022-12-15T12:27:59;-1.60;99.90
15286;DHT22;7744;52.172;10.668;2022-12-15T12:30:30;-1.70;99.90
15286;DHT22;7744;52.172;10.668;2022-12-15T12:33:22;-1.70;99.90
15286;DHT22;7744;52.172;10.668;2022-12-15T12:35:52;-1.80;99.90
15286;DHT22;7744;52.172;10.668;2022-12-15T12:38:29;-1.80;99.90
15286;DHT22;7744;52.172;10.668;2022-12-15T12:41:03;-1.70;99.90
15286;DHT22;7744;52.172;10.668;2022-12-15T12:43:50;-1.80;99.90
15286;DHT22;7744;52.172;10.668;2022-12-15T12:46:27;-1.70;99.90
15286;DHT22;7744;52.172;10.668;2022-12-15T12:51:29;-1.80;99.90
15286;DHT22;7744;52.172;10.668;2022-12-15T12:53:57;-1.70;99.90
15286;DHT22;7744;52.172;10.668;2022-12-15T12:56:42;-1.70;99.90
15286;DHT22;7744;52.172;10.668;2022-12-15T13:05:00;-1.50;99.90
15286;DHT22;7744;52.172;10.668;2022-12-15T13:07:36;-1.40;99.90
15286;DHT22;7744;52.172;10.668;2022-12-15T13:12:46;-1.40;99.90
15286;DHT22;7744;52.172;10.668;2022-12-15T13:15:27;-1.20;99.90
15286;DHT22;7744;52.172;10.668;2022-12-15T13:20:35;-1.50;99.90
15286;DHT22;7744;52.172;10.668;2022-12-15T13:28:25;-1.70;99.90
15286;DHT22;7744;52.172;10.668;2022-12-15T13:41:41;-1.70;99.90
15286;DHT22;7744;52.172;10.668;2022-12-15T13:46:45;-1.80;99.90
15286;DHT22;7744;52.172;10.668;2022-12-15T13:49:15;-1.80;99.90
15286;DHT22;7744;52.172;10.668;2022-12-15T13:51:46;-1.90;99.90
15286;DHT22;7744;52.172;10.668;2022-12-15T13:54:25;-2.10;99.90
15286;DHT22;7744;52.172;10.668;2022-12-15T13:57:08;-2.10;99.90
15286;DHT22;7744;52.172;10.668;2022-12-15T13:59:44;-2.10;1.00
15286;DHT22;7744;52.172;10.668;2022-12-15T14:02:25;-2.20;99.90
15286;DHT22;7744;52.172;10.668;2022-12-15T14:07:49;-2.30;1.00
15286;DHT22;7744;52.172;10.668;2022-12-15T14:10:39;-2.40;1.00
15286;DHT22;7744;52.172;10.668;2022-12-15T14:13:17;-2.50;1.00
15286;DHT22;7744;52.172;10.668;2022-12-15T14:18:30;-2.50;1.00
15286;DHT22;7744;52.172;10.668;2022-12-15T14:20:58;-2.50;1.00
15286;DHT22;7744;52.172;10.668;2022-12-15T14:23:29;-2.60;1.00
15286;DHT22;7744;52.172;10.668;2022-12-15T14:26:15;-2.70;1.00
15286;DHT22;7744;52.172;10.668;2022-12-15T14:28:43;-2.70;1.00
15286;DHT22;7744;52.172;10.668;2022-12-15T14:31:18;-2.80;1.00
15286;DHT22;7744;52.172;10.668;2022-12-15T14:33:47;-2.90;1.00
15286;DHT22;7744;52.172;10.668;2022-12-15T14:36:15;-2.90;1.00
15286;DHT22;7744;52.172;10.668;2022-12-15T14:38:49;-3.00;1.00
15286;DHT22;7744;52.172;10.668;2022-12-15T14:41:21;-2.70;1.00
15286;DHT22;7744;52.172;10.668;2022-12-15T14:43:48;-3.10;1.00
15286;DHT22;7744;52.172;10.668;2022-12-15T14:46:17;-3.20;1.00
15286;DHT22;7744;52.172;10.668;2022-12-15T14:48:55;-3.20;1.00
15286;DHT22;7744;52.172;10.668;2022-12-15T14:51:23;-3.30;1.00
15286;DHT22;7744;52.172;10.668;2022-12-15T14:53:52;-3.40;1.00
15286;DHT22;7744;52.172;10.668;2022-12-15T14:56:25;-3.50;1.00
15286;DHT22;7744;52.172;10.668;2022-12-15T15:01:33;-3.50;1.00
15286;DHT22;7744;52.172;10.668;2022-12-15T15:04:04;-3.50;1.00
15286;DHT22;7744;52.172;10.668;2022-12-15T15:06:38;-3.60;1.00
15286;DHT22;7744;52.172;10.668;2022-12-15T15:09:28;-3.60;1.00
15286;DHT22;7744;52.172;10.668;2022-12-15T15:12:15;-3.60;1.00
15286;DHT22;7744;52.172;10.668;2022-12-15T15:17:33;-3.80;1.00
15286;DHT22;7744;52.172;10.668;2022-12-15T15:20:15;-3.80;1.00
15286;DHT22;7744;52.172;10.668;2022-12-15T15:22:43;-3.90;3.20
15286;DHT22;7744;52.172;10.668;2022-12-15T15:30:50;-4.10;58.30
15286;DHT22;7744;52.172;10.668;2022-12-15T15:33:17;-4.10;68.80
15286;DHT22;7744;52.172;10.668;2022-12-15T15:35:48;-4.20;39.80
15286;DHT22;7744;52.172;10.668;2022-12-15T15:38:30;-4.30;13.00
15286;DHT22;7744;52.172;10.668;2022-12-15T15:41:07;-4.30;18.20
15286;DHT22;7744;52.172;10.668;2022-12-15T15:43:35;-4.20;99.90
15286;DHT22;7744;52.172;10.668;2022-12-15T15:46:16;-4.20;99.90
15286;DHT22;7744;52.172;10.668;2022-12-15T15:48:45;-4.20;99.90
15286;DHT22;7744;52.172;10.668;2022-12-15T15:51:12;-4.30;99.90
15286;DHT22;7744;52.172;10.668;2022-12-15T15:53:38;-4.40;99.90
15286;DHT22;7744;52.172;10.668;2022-12-15T15:56:07;-4.20;1.00
15286;DHT22;7744;52.172;10.668;2022-12-15T15:58:34;-3.90;99.90
15286;DHT22;7744;52.172;10.668;2022-12-15T16:01:00;-4.00;99.90
15286;DHT22;7744;52.172;10.668;2022-12-15T16:03:26;-4.00;99.90
15286;DHT22;7744;52.172;10.668;2022-12-15T16:05:52;-4.10;99.90
15286;DHT22;7744;52.172;10.668;2022-12-15T16:08:22;-4.20;87.70
15286;DHT22;7744;52.172;10.668;2022-12-15T16:10:49;-4.30;1.00
15286;DHT22;7744;52.172;10.668;2022-12-15T16:13:17;-4.40;1.00
15286;DHT22;7744;52.172;10.668;2022-12-15T16:15:44;-4.50;1.00
15286;DHT22;7744;52.172;10.668;2022-12-15T16:18:09;-4.60;1.00
15286;DHT22;7744;52.172;10.668;2022-12-15T16:20:35;-4.60;1.00
15286;DHT22;7744;52.172;10.668;2022-12-15T16:23:38;-4.70;1.00
15286;DHT22;7744;52.172;10.668;2022-12-15T16:26:04;-4.70;1.00
15286;DHT22;7744;52.172;10.668;2022-12-15T16:28:31;-4.60;1.00
15286;DHT22;7744;52.172;10.668;2022-12-15T16:30:57;-4.60;1.00
15286;DHT22;7744;52.172;10.668;2022-12-15T16:33:24;-4.50;56.50
15286;DHT22;7744;52.172;10.668;2022-12-15T16:35:50;-4.60;1.00
15286;DHT22;7744;52.172;10.668;2022-12-15T16:38:25;-4.70;1.00
15286;DHT22;7744;52.172;10.668;2022-12-15T16:40:52;-4.70;1.00
15286;DHT22;7744;52.172;10.668;2022-12-15T16:43:20;-4.90;1.00
15286;DHT22;7744;52.172;10.668;2022-12-15T16:45:48;-5.00;1.00
15286;DHT22;7744;52.172;10.668;2022-12-15T16:48:14;-5.00;1.00
15286;DHT22;7744;52.172;10.668;2022-12-15T16:50:43;-5.10;1.00
15286;DHT22;7744;52.172;10.668;2022-12-15T16:53:24;-5.10;1.00
15286;DHT22;7744;52.172;10.668;2022-12-15T16:55:53;-5.10;1.00
15286;DHT22;7744;52.172;10.668;2022-12-15T16:58:20;-5.10;1.00
15286;DHT22;7744;52.172;10.668;2022-12-15T17:00:46;-5.00;1.00
15286;DHT22;7744;52.172;10.668;2022-12-15T17:03:13;-5.00;1.00
15286;DHT22;7744;52.172;10.668;2022-12-15T17:05:41;-4.90;1.00
15286;DHT22;7744;52.172;10.668;2022-12-15T17:08:15;-4.80;1.00
15286;DHT22;7744;52.172;10.668;2022-12-15T17:10:44;-4.80;1.00
15286;DHT22;7744;52.172;10.668;2022-12-15T17:13:27;-4.90;1.00
15286;DHT22;7744;52.172;10.668;2022-12-15T17:19:19;-4.90;1.00
15286;DHT22;7744;52.172;10.668;2022-12-15T17:21:48;-4.90;1.00
15286;DHT22;7744;52.172;10.668;2022-12-15T17:24:16;-4.80;1.00
15286;DHT22;7744;52.172;10.668;2022-12-15T17:26:43;-4.80;1.00
15286;DHT22;7744;52.172;10.668;2022-12-15T17:29:18;-5.00;1.00
15286;DHT22;7744;52.172;10.668;2022-12-15T17:31:44;-4.90;1.00
15286;DHT22;7744;52.172;10.668;2022-12-15T17:34:24;-4.90;1.00
15286;DHT22;7744;52.172;10.668;2022-12-15T17:36:50;-5.00;1.00
15286;DHT22;7744;52.172;10.668;2022-12-15T17:39:18;-5.00;1.00
15286;DHT22;7744;52.172;10.668;2022-12-15T17:41:44;-5.00;1.00
15286;DHT22;7744;52.172;10.668;2022-12-15T17:44:24;-5.10;1.00
15286;DHT22;7744;52.172;10.668;2022-12-15T17:46:50;-5.10;1.00
15286;DHT22;7744;52.172;10.668;2022-12-15T17:49:19;-5.10;1.00
15286;DHT22;7744;52.172;10.668;2022-12-15T17:51:46;-5.10;1.00
15286;DHT22;7744;52.172;10.668;2022-12-15T17:54:13;-5.20;1.00
15286;DHT22;7744;52.172;10.668;2022-12-15T17:56:43;-5.30;1.00
15286;DHT22;7744;52.172;10.668;2022-12-15T17:59:15;-5.20;1.00
15286;DHT22;7744;52.172;10.668;2022-12-15T18:01:41;-5.30;1.00
15286;DHT22;7744;52.172;10.668;2022-12-15T18:04:10;-5.40;1.00